createdAt,value
2023-05-11T00:00:41.780Z,65.84
2023-05-11T00:03:14.361Z,65.10
2023-05-11T00:05:41.894Z,64.81
2023-05-11T00:08:08.834Z,63.87
2023-05-11T00:10:35.435Z,61.68
2023-05-11T00:13:02.050Z,59.38
2023-05-11T00:15:28.850Z,56.06
2023-05-11T00:17:55.461Z,53.43
2023-05-11T00:20:23.354Z,52.36
2023-05-11T00:22:49.980Z,53.28
2023-05-11T00:25:16.658Z,54.83
2023-05-11T00:27:45.380Z,54.59
2023-05-11T00:30:14.164Z,54.95
2023-05-11T00:32:42.209Z,56.14
2023-05-11T00:35:11.153Z,57.17
2023-05-11T00:37:38.764Z,57.99
2023-05-11T00:40:06.374Z,58.37
2023-05-11T00:42:33.642Z,57.72
2023-05-11T00:45:00.347Z,58.56
2023-05-11T00:47:27.137Z,59.84
2023-05-11T00:49:53.893Z,59.95
2023-05-11T00:52:21.213Z,61.44
2023-05-11T00:54:47.991Z,61.53
2023-05-11T00:57:14.892Z,61.57
2023-05-11T00:59:42.095Z,61.63
2023-05-11T01:02:08.773Z,62.12
2023-05-11T01:04:35.437Z,61.52
2023-05-11T01:07:28.127Z,62.23
2023-05-11T01:10:27.953Z,64.44
2023-05-11T01:13:28.319Z,68.73
2023-05-11T01:15:58.426Z,69.72
2023-05-11T01:18:38.524Z,68.63
2023-05-11T01:21:10.341Z,68.12
2023-05-11T01:23:58.489Z,66.49
2023-05-11T01:27:03.187Z,64.97
2023-05-11T01:30:10.625Z,60.39
2023-05-11T01:32:38.430Z,56.97
2023-05-11T01:35:10.467Z,54.73
2023-05-11T01:37:41.416Z,54.34
2023-05-11T01:40:13.001Z,54.58
2023-05-11T01:42:48.395Z,54.95
2023-05-11T01:45:15.365Z,54.53
2023-05-11T01:47:43.304Z,56.03
2023-05-11T01:50:10.160Z,57.16
2023-05-11T01:52:39.256Z,58.45
2023-05-11T01:55:06.858Z,58.51
2023-05-11T01:57:34.208Z,58.97
2023-05-11T02:00:01.767Z,60.20
2023-05-11T02:02:28.643Z,60.07
2023-05-11T02:04:55.354Z,61.28
2023-05-11T02:07:21.998Z,62.29
2023-05-11T02:09:49.786Z,64.27
2023-05-11T02:12:17.779Z,68.29
2023-05-11T02:14:45.426Z,69.23
2023-05-11T02:17:12.131Z,66.67
2023-05-11T02:19:38.820Z,63.63
2023-05-11T02:22:05.604Z,63.24
2023-05-11T02:24:32.201Z,61.93
2023-05-11T02:26:58.956Z,62.81
2023-05-11T02:29:25.887Z,62.57
2023-05-11T02:32:00.617Z,60.37
2023-05-11T02:34:36.951Z,58.50
2023-05-11T02:37:06.362Z,54.65
2023-05-11T02:39:35.332Z,52.81
2023-05-11T02:42:18.016Z,51.95
2023-05-11T02:45:01.731Z,52.07
2023-05-11T02:47:32.625Z,54.97
2023-05-11T02:50:03.593Z,54.78
2023-05-11T02:52:31.352Z,56.81
2023-05-11T02:54:59.760Z,57.00
2023-05-11T02:57:26.438Z,57.54
2023-05-11T02:59:53.666Z,58.04
2023-05-11T03:02:20.242Z,59.17
2023-05-11T03:04:47.206Z,59.16
2023-05-11T03:07:13.922Z,61.33
2023-05-11T03:09:40.604Z,61.73
2023-05-11T03:12:07.795Z,61.98
2023-05-11T03:14:35.843Z,64.43
2023-05-11T03:17:02.729Z,69.04
2023-05-11T03:19:30.715Z,69.70
2023-05-11T03:21:58.295Z,68.73
2023-05-11T03:24:25.610Z,64.92
2023-05-11T03:26:53.858Z,61.51
2023-05-11T03:29:21.915Z,59.52
2023-05-11T03:31:51.124Z,56.17
2023-05-11T03:34:18.534Z,53.90
2023-05-11T03:36:47.979Z,53.67
2023-05-11T03:39:15.978Z,53.82
2023-05-11T03:41:44.206Z,54.36
2023-05-11T03:44:11.625Z,55.39
2023-05-11T03:46:39.603Z,55.53
2023-05-11T03:49:07.000Z,55.99
2023-05-11T03:51:34.283Z,55.82
2023-05-11T03:54:01.971Z,56.53
2023-05-11T03:56:28.615Z,56.68
2023-05-11T03:58:55.276Z,56.67
2023-05-11T04:01:22.373Z,56.56
2023-05-11T04:03:52.881Z,57.76
2023-05-11T04:06:19.892Z,58.99
2023-05-11T04:08:51.736Z,58.00
2023-05-11T04:11:18.375Z,58.20
2023-05-11T04:13:45.078Z,59.09
2023-05-11T04:16:11.777Z,58.60
2023-05-11T04:18:38.548Z,56.25
2023-05-11T04:21:05.723Z,57.01
2023-05-11T04:23:32.468Z,55.25
2023-05-11T04:25:59.148Z,54.91
2023-05-11T04:28:27.297Z,55.13
2023-05-11T04:30:55.950Z,54.77
2023-05-11T04:33:23.142Z,53.73
2023-05-11T04:35:51.204Z,53.01
2023-05-11T04:38:19.248Z,52.54
2023-05-11T04:40:47.315Z,54.33
2023-05-11T04:43:14.955Z,52.04
2023-05-11T04:45:42.055Z,49.77
2023-05-11T04:48:08.849Z,48.11
2023-05-11T04:50:36.338Z,45.81
2023-05-11T04:53:03.511Z,45.88
2023-05-11T04:55:30.329Z,44.88
2023-05-11T04:57:58.245Z,40.10
2023-05-11T05:00:25.626Z,38.57
2023-05-11T05:02:52.315Z,34.41
2023-05-11T05:05:19.045Z,38.94
2023-05-11T05:07:45.705Z,37.62
2023-05-11T05:10:12.402Z,35.30
2023-05-11T05:12:39.391Z,33.51
2023-05-11T05:15:08.188Z,33.55
2023-05-11T05:17:35.697Z,33.25
2023-05-11T05:20:04.060Z,32.83
2023-05-11T05:22:31.336Z,31.49
2023-05-11T05:24:58.082Z,33.40
2023-05-11T05:27:25.014Z,31.26
2023-05-11T05:29:52.336Z,30.49
2023-05-11T05:32:19.159Z,27.40
2023-05-11T05:34:48.969Z,26.97
2023-05-11T05:37:15.662Z,27.72
2023-05-11T05:39:42.491Z,28.78
2023-05-11T05:42:09.737Z,29.29
2023-05-11T05:44:37.048Z,29.05
2023-05-11T05:47:05.029Z,26.85
2023-05-11T05:49:33.442Z,25.38
2023-05-11T05:52:00.312Z,26.27
2023-05-11T05:54:27.336Z,25.48
2023-05-11T05:56:56.405Z,25.12
2023-05-11T05:59:23.782Z,26.66
2023-05-11T06:01:54.509Z,25.08
2023-05-11T06:04:23.661Z,23.98
2023-05-11T06:06:50.382Z,25.51
2023-05-11T06:09:18.099Z,24.31
2023-05-11T06:11:44.797Z,23.98
2023-05-11T06:14:11.992Z,24.10
2023-05-11T06:16:39.515Z,24.16
2023-05-11T06:19:07.923Z,26.26
2023-05-11T06:21:34.867Z,24.58
2023-05-11T06:24:01.871Z,24.89
2023-05-11T06:26:29.242Z,24.81
2023-05-11T06:28:56.205Z,24.67
2023-05-11T06:31:23.777Z,24.21
2023-05-11T06:33:50.666Z,24.96
2023-05-11T06:36:21.204Z,24.45
2023-05-11T06:38:47.861Z,24.65
2023-05-11T06:41:14.512Z,23.93
2023-05-11T06:43:41.708Z,24.25
2023-05-11T06:46:18.598Z,24.48
2023-05-11T06:48:45.320Z,24.08
2023-05-11T06:51:12.101Z,23.91
2023-05-11T06:53:38.830Z,23.41
2023-05-11T06:56:05.991Z,24.25
2023-05-11T06:58:32.700Z,23.83
2023-05-11T07:00:59.500Z,23.24
2023-05-11T07:03:26.238Z,22.22
2023-05-11T07:05:52.860Z,22.64
2023-05-11T07:08:19.759Z,22.89
2023-05-11T07:10:46.437Z,22.83
2023-05-11T07:13:13.577Z,22.63
2023-05-11T07:15:40.379Z,23.12
2023-05-11T07:18:07.223Z,23.50
2023-05-11T07:20:36.034Z,23.16
2023-05-11T07:23:02.979Z,23.31
2023-05-11T07:25:29.779Z,24.21
2023-05-11T07:27:56.878Z,23.65
2023-05-11T07:30:24.099Z,22.80
2023-05-11T07:32:50.995Z,22.69
2023-05-11T07:35:17.683Z,23.38
2023-05-11T07:37:44.305Z,23.87
2023-05-11T07:40:11.576Z,23.58
2023-05-11T07:42:38.228Z,23.33
2023-05-11T07:45:05.774Z,24.07
2023-05-11T07:47:33.741Z,24.64
2023-05-11T07:50:03.052Z,24.41
2023-05-11T07:52:30.014Z,23.58
2023-05-11T07:54:56.581Z,23.45
2023-05-11T07:57:23.239Z,23.05
2023-05-11T07:59:50.611Z,23.28
2023-05-11T08:02:18.423Z,24.00
2023-05-11T08:04:45.907Z,24.38
2023-05-11T08:07:13.214Z,23.29
2023-05-11T08:09:39.907Z,23.41
2023-05-11T08:12:06.677Z,23.08
2023-05-11T08:14:33.380Z,23.85
2023-05-11T08:17:00.636Z,23.40
2023-05-11T08:19:27.323Z,23.77
2023-05-11T08:21:54.102Z,24.44
2023-05-11T08:24:20.791Z,24.75
2023-05-11T08:26:47.849Z,24.44
2023-05-11T08:29:14.474Z,24.80
2023-05-11T08:31:41.334Z,25.47
2023-05-11T08:34:17.801Z,25.91
2023-05-11T08:36:46.173Z,26.31
2023-05-11T08:39:12.920Z,27.01
2023-05-11T08:41:39.618Z,27.38
2023-05-11T08:44:06.751Z,27.25
2023-05-11T08:46:35.204Z,27.59
2023-05-11T08:49:01.890Z,27.98
2023-05-11T08:51:28.519Z,28.29
2023-05-11T08:53:57.133Z,28.50
2023-05-11T08:56:23.732Z,27.93
2023-05-11T08:58:50.854Z,28.55
2023-05-11T09:01:17.698Z,29.10
2023-05-11T09:03:45.951Z,28.94
2023-05-11T09:06:12.749Z,28.73
2023-05-11T09:08:39.365Z,29.47
2023-05-11T09:11:05.986Z,29.06
2023-05-11T09:13:32.649Z,28.89
2023-05-11T09:15:59.329Z,28.67
2023-05-11T09:18:26.233Z,29.27
2023-05-11T09:20:52.939Z,29.41
2023-05-11T09:23:25.999Z,29.19
2023-05-11T09:25:53.287Z,29.25
2023-05-11T09:28:26.213Z,29.53
2023-05-11T09:30:53.071Z,29.20
2023-05-11T09:33:24.926Z,29.48
2023-05-11T09:35:52.654Z,29.30
2023-05-11T09:38:20.082Z,29.06
2023-05-11T09:40:54.681Z,28.87
2023-05-11T09:43:26.098Z,29.39
2023-05-11T09:45:55.454Z,29.12
2023-05-11T09:48:28.042Z,29.31
2023-05-11T09:50:59.705Z,29.03
2023-05-11T09:53:45.332Z,28.62
2023-05-11T09:56:13.110Z,29.08
2023-05-11T09:58:54.951Z,29.35
2023-05-11T10:01:32.882Z,29.77
2023-05-11T10:04:13.844Z,29.01
2023-05-11T10:06:54.803Z,28.21
2023-05-11T10:09:24.845Z,28.82
2023-05-11T10:11:51.410Z,29.46
2023-05-11T10:14:18.414Z,29.07
2023-05-11T10:16:45.987Z,28.98
2023-05-11T10:19:13.039Z,29.15
2023-05-11T10:21:39.788Z,29.13
2023-05-11T10:24:07.190Z,29.52
2023-05-11T10:26:33.767Z,29.54
2023-05-11T10:29:00.841Z,29.61
2023-05-11T10:31:28.708Z,29.64
2023-05-11T10:33:56.665Z,30.20
2023-05-11T10:36:23.696Z,30.71
2023-05-11T10:38:50.347Z,30.20
2023-05-11T10:41:50.166Z,30.29
2023-05-11T10:44:35.888Z,29.95
2023-05-11T10:47:42.895Z,29.73
2023-05-11T10:50:46.558Z,29.91
2023-05-11T10:53:52.188Z,29.77
2023-05-11T10:56:50.080Z,29.64
2023-05-11T10:59:23.810Z,29.67
2023-05-11T11:01:58.482Z,29.03
2023-05-11T11:04:25.288Z,28.80
2023-05-11T11:07:05.565Z,29.40
2023-05-11T11:09:59.706Z,28.65
2023-05-11T11:12:27.470Z,28.38
2023-05-11T11:15:01.476Z,28.53
2023-05-11T11:17:31.317Z,28.49
2023-05-11T11:20:00.659Z,28.38
2023-05-11T11:22:40.726Z,28.72
2023-05-11T11:25:09.005Z,29.05
2023-05-11T11:27:44.793Z,28.11
2023-05-11T11:30:21.584Z,28.68
2023-05-11T11:32:50.501Z,28.85
2023-05-11T11:35:38.982Z,28.33
2023-05-11T11:38:12.625Z,27.38
2023-05-11T11:43:27.751Z,27.90
2023-05-11T11:46:03.481Z,28.22
2023-05-11T11:48:38.390Z,28.66
2023-05-11T11:51:09.870Z,27.96
2023-05-11T11:53:36.724Z,28.69
2023-05-11T11:56:04.238Z,28.89
2023-05-11T11:58:46.055Z,28.40
2023-05-11T12:01:16.921Z,28.81
2023-05-11T12:03:48.813Z,28.37
2023-05-11T12:06:16.048Z,28.15
2023-05-11T12:08:42.674Z,28.27
2023-05-11T12:11:09.340Z,28.20
2023-05-11T12:13:36.057Z,27.71
2023-05-11T12:16:16.719Z,27.23
2023-05-11T12:18:52.925Z,27.56
2023-05-11T12:21:20.964Z,27.59
2023-05-11T12:23:59.437Z,27.41
2023-05-11T12:26:27.697Z,27.16
2023-05-11T12:29:08.117Z,26.84
2023-05-11T12:31:42.736Z,26.45
2023-05-11T12:34:16.885Z,27.25
2023-05-11T12:36:48.589Z,26.33
2023-05-11T12:39:24.372Z,25.60
2023-05-11T12:41:53.038Z,25.80
2023-05-11T12:44:21.100Z,25.52
2023-05-11T12:46:48.363Z,25.84
2023-05-11T12:49:25.283Z,26.45
2023-05-11T12:52:00.016Z,26.07
2023-05-11T12:54:31.402Z,26.49
2023-05-11T12:56:58.865Z,26.15
2023-05-11T12:59:39.073Z,26.05
2023-05-11T13:02:21.259Z,25.78
2023-05-11T13:04:48.215Z,25.83
2023-05-11T13:07:24.819Z,25.94
2023-05-11T13:09:59.360Z,25.26
2023-05-11T13:12:26.458Z,25.84
2023-05-11T13:15:12.938Z,25.53
2023-05-11T13:17:41.301Z,26.17
2023-05-11T13:20:29.091Z,26.10
2023-05-11T13:23:09.473Z,25.78
2023-05-11T13:25:45.322Z,26.14
2023-05-11T13:28:14.148Z,25.62
2023-05-11T13:30:41.242Z,25.62
2023-05-11T13:33:07.905Z,25.68
2023-05-11T13:35:44.112Z,25.31
2023-05-11T13:38:11.041Z,25.25
2023-05-11T13:40:38.047Z,25.51
2023-05-11T13:43:04.691Z,25.64
2023-05-11T13:45:32.031Z,24.24
2023-05-11T13:47:58.767Z,24.09
2023-05-11T13:50:25.837Z,24.51
2023-05-11T13:52:53.229Z,25.30
2023-05-11T13:55:20.681Z,25.69
2023-05-11T13:57:47.844Z,25.87
2023-05-11T14:00:15.317Z,25.11
2023-05-11T14:02:43.417Z,25.21
2023-05-11T14:05:10.165Z,25.23
2023-05-11T14:07:46.839Z,24.98
2023-05-11T14:10:19.631Z,25.45
2023-05-11T14:12:46.719Z,25.89
2023-05-11T14:15:13.616Z,25.79
2023-05-11T14:17:42.136Z,25.48
2023-05-11T14:20:10.961Z,26.07
2023-05-11T14:22:38.517Z,26.32
2023-05-11T14:25:06.186Z,25.78
2023-05-11T14:27:32.898Z,25.01
2023-05-11T14:29:59.501Z,25.57
2023-05-11T14:32:26.622Z,26.20
2023-05-11T14:34:53.324Z,26.48
2023-05-11T14:37:19.995Z,25.91
2023-05-11T14:39:46.716Z,26.05
2023-05-11T14:42:13.580Z,26.46
2023-05-11T14:44:41.198Z,26.87
2023-05-11T14:47:08.108Z,26.62
2023-05-11T14:49:34.804Z,26.84
2023-05-11T14:52:01.394Z,26.98
2023-05-11T14:54:28.051Z,26.72
2023-05-11T14:56:55.717Z,26.88
2023-05-11T14:59:23.847Z,26.76
2023-05-11T15:01:50.513Z,27.07
2023-05-11T15:04:19.957Z,27.11
2023-05-11T15:06:46.841Z,27.43
2023-05-11T15:09:13.560Z,27.16
2023-05-11T15:11:40.234Z,27.04
2023-05-11T15:14:06.860Z,26.84
2023-05-11T15:16:33.397Z,26.67
2023-05-11T15:19:00.309Z,26.90
2023-05-11T15:21:27.106Z,26.31
2023-05-11T15:23:53.762Z,26.26
2023-05-11T15:26:21.752Z,26.18
2023-05-11T15:28:48.394Z,27.07
2023-05-11T15:31:15.117Z,27.17
2023-05-11T15:33:41.882Z,27.06
2023-05-11T15:36:12.833Z,27.24
2023-05-11T15:38:40.189Z,27.38
2023-05-11T15:41:07.212Z,27.42
2023-05-11T15:43:33.901Z,27.43
2023-05-11T15:46:02.892Z,27.59
2023-05-11T15:48:29.551Z,27.40
2023-05-11T15:50:58.730Z,27.40
2023-05-11T15:53:25.701Z,27.88
2023-05-11T15:55:54.719Z,28.28
2023-05-11T15:58:21.634Z,28.04
2023-05-11T16:00:48.392Z,28.20
2023-05-11T16:03:15.266Z,28.27
2023-05-11T16:05:41.949Z,28.17
2023-05-11T16:08:08.540Z,27.84
2023-05-11T16:10:35.672Z,27.81
2023-05-11T16:13:02.396Z,27.97
2023-05-11T16:15:30.546Z,27.97
2023-05-11T16:17:57.772Z,27.95
2023-05-11T16:20:24.642Z,28.16
2023-05-11T16:22:51.655Z,28.03
2023-05-11T16:25:18.505Z,28.00
2023-05-11T16:27:45.108Z,28.00
2023-05-11T16:30:23.117Z,27.72
2023-05-11T16:32:51.188Z,27.84
2023-05-11T16:35:18.582Z,28.28
2023-05-11T16:37:47.035Z,28.16
2023-05-11T16:40:13.775Z,28.48
2023-05-11T16:42:40.454Z,28.91
2023-05-11T16:45:07.904Z,28.83
2023-05-11T16:47:35.197Z,28.98
2023-05-11T16:50:01.830Z,29.01
2023-05-11T16:52:28.506Z,29.48
2023-05-11T16:54:58.813Z,30.03
2023-05-11T16:57:26.164Z,29.52
2023-05-11T16:59:52.813Z,30.33
2023-05-11T17:02:20.318Z,29.65
2023-05-11T17:04:48.890Z,29.46
2023-05-11T17:07:15.681Z,29.69
2023-05-11T17:09:45.946Z,29.85
2023-05-11T17:12:16.750Z,30.21
2023-05-11T17:14:43.487Z,30.72
2023-05-11T17:17:16.823Z,30.56
2023-05-11T17:19:43.691Z,30.87
2023-05-11T17:22:18.472Z,31.33
2023-05-11T17:24:46.247Z,31.58
2023-05-11T17:27:13.414Z,31.40
2023-05-11T17:29:42.910Z,31.47
2023-05-11T17:32:09.808Z,31.95
2023-05-11T17:34:43.589Z,32.32
2023-05-11T17:37:20.459Z,31.93
2023-05-11T17:39:55.299Z,32.70
2023-05-11T17:42:22.112Z,32.52
2023-05-11T17:44:51.098Z,32.19
2023-05-11T17:47:21.769Z,32.72
2023-05-11T17:49:48.689Z,32.45
2023-05-11T17:52:15.479Z,32.57
2023-05-11T17:54:42.230Z,32.69
2023-05-11T17:57:08.866Z,33.13
2023-05-11T17:59:35.637Z,33.38
2023-05-11T18:02:02.774Z,33.52
2023-05-11T18:04:29.500Z,33.75
2023-05-11T18:06:56.717Z,33.94
2023-05-11T18:09:23.622Z,34.09
2023-05-11T18:11:50.765Z,34.39
2023-05-11T18:14:18.996Z,35.79
2023-05-11T18:16:48.611Z,35.85
2023-05-11T18:19:17.514Z,35.52
2023-05-11T18:21:44.954Z,35.74
2023-05-11T18:24:13.981Z,35.91
2023-05-11T18:26:41.413Z,36.19
2023-05-11T18:29:11.208Z,36.11
2023-05-11T18:31:38.095Z,36.38
2023-05-11T18:34:06.115Z,36.84
2023-05-11T18:36:33.058Z,36.91
2023-05-11T18:38:59.633Z,37.05
2023-05-11T18:41:27.871Z,37.64
2023-05-11T18:43:54.711Z,37.85
2023-05-11T18:46:21.505Z,38.21
2023-05-11T18:48:52.378Z,38.23
2023-05-11T18:51:21.833Z,38.38
2023-05-11T18:53:49.527Z,38.65
2023-05-11T18:56:16.910Z,39.32
2023-05-11T18:58:45.839Z,39.53
2023-05-11T19:01:12.699Z,40.07
2023-05-11T19:03:39.750Z,40.20
2023-05-11T19:06:07.040Z,40.73
2023-05-11T19:08:34.086Z,40.66
2023-05-11T19:11:08.920Z,41.32
2023-05-11T19:13:36.266Z,41.41
2023-05-11T19:16:03.755Z,42.03
2023-05-11T19:18:31.641Z,42.75
2023-05-11T19:20:58.792Z,42.80
2023-05-11T19:23:25.581Z,42.50
2023-05-11T19:25:52.318Z,42.96
2023-05-11T19:28:19.275Z,43.44
2023-05-11T19:30:46.000Z,43.58
2023-05-11T19:33:13.015Z,44.01
2023-05-11T19:35:39.953Z,44.33
2023-05-11T19:38:07.346Z,44.92
2023-05-11T19:40:45.895Z,44.96
2023-05-11T19:43:13.425Z,45.61
2023-05-11T19:45:42.823Z,45.77
2023-05-11T19:48:12.117Z,46.10
2023-05-11T19:50:40.863Z,46.72
2023-05-11T19:53:07.442Z,46.66
2023-05-11T19:55:35.936Z,47.15
2023-05-11T19:58:03.407Z,47.12
2023-05-11T20:00:30.537Z,47.43
2023-05-11T20:02:57.554Z,48.16
2023-05-11T20:05:24.518Z,48.27
2023-05-11T20:07:51.361Z,48.40
2023-05-11T20:10:18.176Z,48.64
2023-05-11T20:12:45.350Z,49.12
2023-05-11T20:15:12.010Z,49.45
2023-05-11T20:17:39.948Z,50.26
2023-05-11T20:20:08.108Z,50.68
2023-05-11T20:22:36.616Z,50.91
2023-05-11T20:25:09.630Z,50.60
2023-05-11T20:27:43.810Z,50.85
2023-05-11T20:30:11.370Z,50.98
2023-05-11T20:32:38.049Z,51.10
2023-05-11T20:35:05.596Z,51.33
2023-05-11T20:37:32.425Z,51.60
2023-05-11T20:39:59.003Z,52.08
2023-05-11T20:42:26.486Z,52.40
2023-05-11T20:44:53.549Z,52.60
2023-05-11T20:47:20.399Z,53.14
2023-05-11T20:49:47.438Z,52.97
2023-05-11T20:52:13.958Z,52.63
2023-05-11T20:54:41.630Z,52.58
2023-05-11T20:57:08.453Z,52.94
2023-05-11T21:02:05.296Z,53.83
2023-05-11T21:04:33.733Z,54.22
2023-05-11T21:07:00.456Z,53.92
2023-05-11T21:09:27.191Z,54.53
2023-05-11T21:11:53.929Z,54.50
2023-05-11T21:14:20.624Z,54.82
2023-05-11T21:16:48.299Z,55.08
2023-05-11T21:19:20.789Z,55.28
2023-05-11T21:21:49.072Z,54.65
2023-05-11T21:24:16.326Z,55.20
2023-05-11T21:26:47.075Z,55.68
2023-05-11T21:29:15.132Z,56.02
2023-05-11T21:31:41.784Z,56.31
2023-05-11T21:34:09.019Z,55.87
2023-05-11T21:36:38.322Z,56.43
2023-05-11T21:39:04.951Z,56.57
2023-05-11T21:41:31.809Z,56.53
2023-05-11T21:43:59.517Z,56.80
2023-05-11T21:46:26.190Z,57.61
2023-05-11T21:48:52.948Z,57.53
2023-05-11T21:51:19.594Z,56.96
2023-05-11T21:53:46.163Z,57.57
2023-05-11T21:56:13.062Z,57.61
2023-05-11T21:58:40.554Z,57.71
2023-05-11T22:01:08.164Z,57.65
2023-05-11T22:03:34.987Z,57.65
2023-05-11T22:06:03.347Z,58.13
2023-05-11T22:08:30.700Z,58.23
2023-05-11T22:10:57.331Z,58.68
2023-05-11T22:13:23.966Z,58.58
2023-05-11T22:15:50.634Z,58.47
2023-05-11T22:18:17.497Z,58.41
2023-05-11T22:20:44.253Z,58.56
2023-05-11T22:23:10.826Z,58.67
2023-05-11T22:25:37.519Z,58.65
2023-05-11T22:28:04.994Z,58.75
2023-05-11T22:30:31.650Z,59.07
2023-05-11T22:32:58.300Z,59.26
2023-05-11T22:35:26.261Z,59.47
2023-05-11T22:37:53.755Z,59.43
2023-05-11T22:40:22.961Z,59.20
2023-05-11T22:42:50.465Z,59.43
2023-05-11T22:45:21.195Z,59.79
2023-05-11T22:47:47.968Z,59.61
2023-05-11T22:50:15.148Z,59.81
2023-05-11T22:52:41.780Z,59.88
2023-05-11T22:55:10.713Z,60.04
2023-05-11T22:57:37.713Z,60.51
2023-05-11T23:00:06.145Z,60.63
2023-05-11T23:02:35.235Z,60.75
2023-05-11T23:05:02.336Z,60.64
2023-05-11T23:07:28.972Z,60.62
2023-05-11T23:09:55.724Z,60.92
2023-05-11T23:12:24.614Z,60.81
2023-05-11T23:14:52.516Z,60.89
2023-05-11T23:17:19.814Z,61.12
2023-05-11T23:19:46.506Z,61.01
2023-05-11T23:22:14.016Z,61.74
2023-05-11T23:24:40.913Z,61.66
2023-05-11T23:27:08.933Z,61.79
2023-05-11T23:29:36.740Z,61.61
2023-05-11T23:32:03.685Z,61.65
2023-05-11T23:34:33.049Z,61.89
2023-05-11T23:36:59.983Z,62.03
2023-05-11T23:39:27.437Z,62.09
2023-05-11T23:41:54.083Z,61.89
2023-05-11T23:44:20.768Z,62.72
2023-05-11T23:46:47.593Z,66.30
2023-05-11T23:49:14.298Z,70.76
2023-05-11T23:51:41.034Z,72.14
2023-05-11T23:54:07.676Z,71.12
2023-05-11T23:56:38.021Z,68.28
2023-05-11T23:59:04.817Z,64.82
